createdAt,value
2018-08-13T00:01:02.592Z,14
2018-08-13T00:02:09.843Z,14
2018-08-13T00:03:17.061Z,14
2018-08-13T00:04:24.008Z,14
2018-08-13T00:05:31.236Z,14
2018-08-13T00:06:38.465Z,14
2018-08-13T00:07:45.679Z,13.9
2018-08-13T00:08:52.365Z,13.9
2018-08-13T00:09:59.578Z,13.8
2018-08-13T00:11:06.808Z,13.8
2018-08-13T00:12:14.036Z,13.8
2018-08-13T00:13:21.274Z,13.8
2018-08-13T00:14:28.491Z,13.9
2018-08-13T00:15:35.432Z,13.9
2018-08-13T00:16:42.657Z,13.8
2018-08-13T00:17:49.896Z,13.8
2018-08-13T00:18:56.832Z,13.8
2018-08-13T00:20:04.057Z,13.8
2018-08-13T00:21:11.290Z,13.8
2018-08-13T00:22:18.517Z,13.8
2018-08-13T00:23:25.759Z,13.8
2018-08-13T00:24:32.991Z,13.8
2018-08-13T00:25:40.258Z,13.8
2018-08-13T00:26:47.493Z,13.8
2018-08-13T00:27:54.714Z,13.8
2018-08-13T00:29:01.946Z,13.8
2018-08-13T00:30:09.185Z,13.7
2018-08-13T00:31:16.423Z,13.7
2018-08-13T00:32:23.884Z,13.6
2018-08-13T00:33:31.131Z,13.6
2018-08-13T00:34:38.087Z,13.6
2018-08-13T00:35:45.042Z,13.6
2018-08-13T00:36:52.261Z,13.5
2018-08-13T00:37:59.495Z,13.5
2018-08-13T00:39:06.476Z,13.6
2018-08-13T00:40:13.708Z,13.6
2018-08-13T00:41:20.930Z,13.6
2018-08-13T00:42:28.150Z,13.5
2018-08-13T00:43:35.391Z,13.5
2018-08-13T00:44:42.636Z,13.5
2018-08-13T00:45:49.884Z,13.5
2018-08-13T00:46:57.127Z,13.5
2018-08-13T00:48:04.366Z,13.5
2018-08-13T00:49:11.314Z,13.4
2018-08-13T00:50:18.569Z,13.4
2018-08-13T00:51:25.512Z,13.4
2018-08-13T00:52:32.967Z,13.5
2018-08-13T00:53:40.187Z,13.4
2018-08-13T00:54:47.432Z,13.4
2018-08-13T00:55:54.653Z,13.4
2018-08-13T00:57:01.909Z,13.4
2018-08-13T00:58:09.146Z,13.4
2018-08-13T00:59:16.369Z,13.4
2018-08-13T01:00:23.597Z,13.4
2018-08-13T01:01:30.841Z,13.4
2018-08-13T01:02:38.096Z,13.4
2018-08-13T01:03:45.274Z,13.4
2018-08-13T01:04:52.510Z,13.4
2018-08-13T01:05:59.970Z,13.4
2018-08-13T01:07:07.198Z,13.4
2018-08-13T01:08:14.465Z,13.4
2018-08-13T01:09:21.692Z,13.3
2018-08-13T01:10:29.148Z,13.3
2018-08-13T01:11:36.376Z,13.3
2018-08-13T01:12:43.619Z,13.3
2018-08-13T01:13:50.609Z,13.3
2018-08-13T01:14:57.596Z,13.3
2018-08-13T01:16:04.820Z,13.3
2018-08-13T01:17:12.044Z,13.4
2018-08-13T01:18:19.263Z,13.3
2018-08-13T01:19:26.739Z,13.3
2018-08-13T01:20:33.968Z,13.2
2018-08-13T01:21:41.229Z,13.2
2018-08-13T01:22:48.462Z,13.3
2018-08-13T01:23:55.698Z,13.3
2018-08-13T01:25:02.942Z,13.3
2018-08-13T01:26:10.186Z,13.3
2018-08-13T01:27:17.419Z,13.3
2018-08-13T01:28:24.653Z,13.3
2018-08-13T01:29:31.906Z,13.2
2018-08-13T01:30:38.857Z,13.2
2018-08-13T01:31:46.098Z,13.1
2018-08-13T01:32:53.337Z,13.2
2018-08-13T01:34:00.564Z,13.1
2018-08-13T01:35:07.800Z,13.1
2018-08-13T01:36:15.019Z,13.1
2018-08-13T01:37:22.256Z,13.1
2018-08-13T01:38:29.483Z,13.1
2018-08-13T01:39:36.710Z,13.1
2018-08-13T01:40:43.948Z,13
2018-08-13T01:41:51.199Z,13.1
2018-08-13T01:42:58.425Z,13.1
2018-08-13T01:44:05.664Z,13.1
2018-08-13T01:45:12.619Z,13
2018-08-13T01:46:19.849Z,13
2018-08-13T01:47:27.075Z,13
2018-08-13T01:48:34.305Z,13
2018-08-13T01:49:41.532Z,12.9
2018-08-13T01:50:48.753Z,12.9
2018-08-13T01:51:55.710Z,12.9
2018-08-13T01:53:02.957Z,12.9
2018-08-13T01:54:10.193Z,12.9
2018-08-13T01:55:17.631Z,12.9
2018-08-13T01:56:25.092Z,12.9
2018-08-13T01:57:32.320Z,12.9
2018-08-13T01:58:39.558Z,12.9
2018-08-13T01:59:46.545Z,12.9
2018-08-13T02:00:53.780Z,12.9
2018-08-13T02:02:01.033Z,12.9
2018-08-13T02:03:08.271Z,12.9
2018-08-13T02:04:15.494Z,12.9
2018-08-13T02:05:22.451Z,12.8
2018-08-13T02:06:29.674Z,12.8
2018-08-13T02:07:36.917Z,12.7
2018-08-13T02:08:43.863Z,12.7
2018-08-13T02:09:51.092Z,12.7
2018-08-13T02:10:58.061Z,12.7
2018-08-13T02:12:05.507Z,12.7
2018-08-13T02:13:12.731Z,12.7
2018-08-13T02:14:19.684Z,12.8
2018-08-13T02:15:26.916Z,12.7
2018-08-13T02:16:34.170Z,12.7
2018-08-13T02:17:41.404Z,12.7
2018-08-13T02:18:48.876Z,12.7
2018-08-13T02:19:56.127Z,12.7
2018-08-13T02:21:03.378Z,12.7
2018-08-13T02:22:10.622Z,12.8
2018-08-13T02:23:18.070Z,12.8
2018-08-13T02:24:25.290Z,12.7
2018-08-13T02:25:32.530Z,12.7
2018-08-13T02:26:39.777Z,12.7
2018-08-13T02:27:47.222Z,12.7
2018-08-13T02:28:54.467Z,12.7
2018-08-13T02:30:01.705Z,12.7
2018-08-13T02:31:08.938Z,12.6
2018-08-13T02:32:16.182Z,12.6
2018-08-13T02:33:23.405Z,12.6
2018-08-13T02:34:30.867Z,12.6
2018-08-13T02:35:38.122Z,12.5
2018-08-13T02:36:45.352Z,12.5
2018-08-13T02:37:52.583Z,12.5
2018-08-13T02:38:59.899Z,12.6
2018-08-13T02:40:07.250Z,12.6
2018-08-13T02:41:14.465Z,12.6
2018-08-13T02:42:21.692Z,12.5
2018-08-13T02:43:28.941Z,12.6
2018-08-13T02:44:36.177Z,12.6
2018-08-13T02:45:43.406Z,12.5
2018-08-13T02:46:50.641Z,12.5
2018-08-13T02:47:57.886Z,12.5
2018-08-13T02:49:05.117Z,12.4
2018-08-13T02:50:12.356Z,12.4
2018-08-13T02:51:19.571Z,12.4
2018-08-13T02:52:26.794Z,12.3
2018-08-13T02:53:33.740Z,12.3
2018-08-13T02:54:40.991Z,12.3
2018-08-13T02:55:48.214Z,12.3
2018-08-13T02:56:55.429Z,12.3
2018-08-13T02:58:02.383Z,12.4
2018-08-13T02:59:09.725Z,12.3
2018-08-13T03:00:17.173Z,12.3
2018-08-13T03:01:24.402Z,12.3
2018-08-13T03:02:31.635Z,12.3
2018-08-13T03:03:38.863Z,12.3
2018-08-13T03:04:46.273Z,12.3
2018-08-13T03:05:53.765Z,12.3
2018-08-13T03:07:01.217Z,12.3
2018-08-13T03:08:08.461Z,12.3
2018-08-13T03:09:15.643Z,12.3
2018-08-13T03:10:22.908Z,12.3
2018-08-13T03:11:30.122Z,12.2
2018-08-13T03:12:37.334Z,12.1
2018-08-13T03:13:44.576Z,12.1
2018-08-13T03:14:51.811Z,12.1
2018-08-13T03:15:59.264Z,12.1
2018-08-13T03:17:06.497Z,12.2
2018-08-13T03:18:13.721Z,12.2
2018-08-13T03:19:20.962Z,12.2
2018-08-13T03:20:28.189Z,12.2
2018-08-13T03:21:35.413Z,12.3
2018-08-13T03:22:42.671Z,12.2
2018-08-13T03:23:49.906Z,12.2
2018-08-13T03:24:57.121Z,12.2
2018-08-13T03:26:04.351Z,12.2
2018-08-13T03:27:11.299Z,12.2
2018-08-13T03:28:18.533Z,12.1
2018-08-13T03:29:25.511Z,12.1
2018-08-13T03:30:32.725Z,12
2018-08-13T03:31:39.948Z,11.9
2018-08-13T03:32:47.168Z,11.9
2018-08-13T03:33:54.386Z,12
2018-08-13T03:35:01.612Z,12
2018-08-13T03:36:08.831Z,12
2018-08-13T03:37:16.048Z,12
2018-08-13T03:38:23.267Z,12
2018-08-13T03:39:30.497Z,12
2018-08-13T03:40:37.721Z,12
2018-08-13T03:41:44.952Z,12
2018-08-13T03:42:51.904Z,11.9
2018-08-13T03:43:59.128Z,11.9
2018-08-13T03:45:06.361Z,11.9
2018-08-13T03:46:13.588Z,12
2018-08-13T03:47:20.819Z,12
2018-08-13T03:48:28.253Z,12
2018-08-13T03:49:35.468Z,12
2018-08-13T03:50:42.427Z,11.9
2018-08-13T03:51:49.648Z,11.9
2018-08-13T03:52:56.898Z,11.9
2018-08-13T03:54:03.841Z,11.9
2018-08-13T03:55:11.076Z,11.9
2018-08-13T03:56:18.305Z,11.9
2018-08-13T03:57:25.530Z,11.9
2018-08-13T03:58:32.753Z,11.9
2018-08-13T03:59:39.701Z,11.9
2018-08-13T04:00:46.933Z,11.9
2018-08-13T04:01:53.882Z,11.9
2018-08-13T04:03:01.110Z,11.9
2018-08-13T04:04:08.348Z,11.9
2018-08-13T04:05:15.296Z,11.9
2018-08-13T04:06:22.523Z,11.9
2018-08-13T04:07:29.751Z,12
2018-08-13T04:08:36.990Z,12
2018-08-13T04:09:44.227Z,11.9
2018-08-13T04:10:51.160Z,12
2018-08-13T04:11:58.111Z,12
2018-08-13T04:13:05.337Z,11.9
2018-08-13T04:14:12.563Z,11.9
2018-08-13T04:15:19.785Z,12
2018-08-13T04:16:26.732Z,11.9
2018-08-13T04:17:33.964Z,12
2018-08-13T04:18:41.197Z,12
2018-08-13T04:19:48.418Z,12
2018-08-13T04:20:55.632Z,12
2018-08-13T04:22:02.850Z,11.9
2018-08-13T04:23:10.083Z,11.9
2018-08-13T04:24:17.297Z,11.9
2018-08-13T04:25:24.543Z,12
2018-08-13T04:26:31.772Z,11.9
2018-08-13T04:27:39.002Z,11.9
2018-08-13T04:28:45.956Z,11.9
2018-08-13T04:29:53.182Z,11.9
2018-08-13T04:31:00.121Z,12
2018-08-13T04:32:07.357Z,12
2018-08-13T04:33:14.578Z,12.1
2018-08-13T04:34:21.813Z,12.1
2018-08-13T04:35:29.042Z,12.1
2018-08-13T04:36:36.271Z,12.1
2018-08-13T04:37:43.498Z,12.2
2018-08-13T04:38:50.728Z,12.2
2018-08-13T04:39:57.959Z,12.2
2018-08-13T04:41:05.183Z,12.2
2018-08-13T04:42:12.434Z,12.2
2018-08-13T04:43:19.659Z,12.2
2018-08-13T04:44:26.895Z,12.2
2018-08-13T04:45:34.115Z,12.3
2018-08-13T04:46:41.332Z,12.4
2018-08-13T04:47:48.559Z,12.4
2018-08-13T04:48:55.790Z,12.4
2018-08-13T04:50:03.014Z,12.4
2018-08-13T04:51:10.252Z,12.4
2018-08-13T04:52:17.809Z,12.5
2018-08-13T04:53:25.138Z,12.5
2018-08-13T04:54:32.084Z,12.5
2018-08-13T04:55:39.314Z,12.5
2018-08-13T04:56:46.562Z,12.5
2018-08-13T04:57:53.781Z,12.6
2018-08-13T04:59:01.108Z,12.6
2018-08-13T05:00:08.697Z,12.6
2018-08-13T05:01:15.923Z,12.5
2018-08-13T05:02:23.141Z,12.5
2018-08-13T05:03:30.365Z,12.5
2018-08-13T05:04:37.577Z,12.6
2018-08-13T05:05:44.805Z,12.6
2018-08-13T05:06:51.732Z,12.6
2018-08-13T05:07:58.964Z,12.6
2018-08-13T05:09:06.190Z,12.6
2018-08-13T05:10:13.138Z,12.6
2018-08-13T05:11:20.349Z,12.6
2018-08-13T05:12:27.569Z,12.6
2018-08-13T05:13:34.793Z,12.7
2018-08-13T05:14:42.018Z,12.7
2018-08-13T05:15:49.241Z,12.7
2018-08-13T05:16:56.461Z,12.7
2018-08-13T05:18:03.686Z,12.7
2018-08-13T05:19:10.906Z,12.8
2018-08-13T05:20:18.141Z,12.8
2018-08-13T05:21:25.365Z,12.8
2018-08-13T05:22:32.585Z,12.8
2018-08-13T05:23:39.809Z,12.8
2018-08-13T05:24:46.763Z,12.8
2018-08-13T05:25:53.982Z,12.8
2018-08-13T05:27:01.205Z,12.9
2018-08-13T05:28:08.168Z,12.9
2018-08-13T05:29:15.397Z,12.9
2018-08-13T05:30:22.790Z,12.9
2018-08-13T05:31:30.258Z,13
2018-08-13T05:32:37.482Z,13
2018-08-13T05:33:44.702Z,13.1
2018-08-13T05:34:51.932Z,13.1
2018-08-13T05:35:59.167Z,13.2
2018-08-13T05:37:06.392Z,13.2
2018-08-13T05:38:13.700Z,13.3
2018-08-13T05:39:21.075Z,13.3
2018-08-13T05:40:28.299Z,13.4
2018-08-13T05:41:35.530Z,13.4
2018-08-13T05:42:42.753Z,13.5
2018-08-13T05:43:49.701Z,13.5
2018-08-13T05:44:56.662Z,13.6
2018-08-13T05:46:03.616Z,13.7
2018-08-13T05:47:10.839Z,13.8
2018-08-13T05:48:18.060Z,13.9
2018-08-13T05:49:25.317Z,14
2018-08-13T05:50:32.535Z,14
2018-08-13T05:51:39.758Z,14.1
2018-08-13T05:52:47.006Z,14.1
2018-08-13T05:53:53.976Z,14.2
2018-08-13T05:55:01.207Z,14.3
2018-08-13T05:56:08.444Z,14.3
2018-08-13T05:57:15.664Z,14.4
2018-08-13T05:58:22.878Z,14.4
2018-08-13T05:59:30.114Z,14.5
2018-08-13T06:00:37.308Z,14.6
2018-08-13T06:01:44.239Z,14.7
2018-08-13T06:02:51.518Z,14.8
2018-08-13T06:03:58.503Z,14.9
2018-08-13T06:05:05.748Z,15
2018-08-13T06:06:12.981Z,15.1
2018-08-13T06:07:20.223Z,15.3
2018-08-13T06:08:27.461Z,15.4
2018-08-13T06:09:49.328Z,15.6
2018-08-13T06:10:56.566Z,15.7
2018-08-13T06:12:03.516Z,16
2018-08-13T06:13:10.747Z,16.2
2018-08-13T06:14:17.980Z,16.3
2018-08-13T06:15:24.922Z,16.5
2018-08-13T06:16:32.165Z,16.6
2018-08-13T06:17:39.404Z,16.8
2018-08-13T06:18:46.623Z,17
2018-08-13T06:19:53.864Z,17.1
2018-08-13T06:21:01.097Z,17.3
2018-08-13T06:22:08.344Z,17.5
2018-08-13T06:23:15.611Z,17.7
2018-08-13T06:24:23.086Z,18
2018-08-13T06:25:30.800Z,18.2
2018-08-13T06:26:38.042Z,18.4
2018-08-13T06:27:45.281Z,18.5
2018-08-13T06:28:52.526Z,18.5
2018-08-13T06:29:59.822Z,18.7
2018-08-13T06:31:06.817Z,18.9
2018-08-13T06:32:14.054Z,19.2
2018-08-13T06:33:21.278Z,19.4
2018-08-13T06:34:28.505Z,19.3
2018-08-13T06:35:35.450Z,19.1
2018-08-13T06:36:42.672Z,19
2018-08-13T06:37:49.990Z,19
2018-08-13T06:38:57.239Z,19
2018-08-13T06:40:04.477Z,19.2
2018-08-13T06:41:11.456Z,19.4
2018-08-13T06:42:18.706Z,19.7
2018-08-13T06:43:25.951Z,19.8
2018-08-13T06:44:33.200Z,20
2018-08-13T06:45:40.433Z,20.3
2018-08-13T06:46:47.679Z,20.6
2018-08-13T06:47:54.361Z,20.6
2018-08-13T06:49:01.584Z,20.8
2018-08-13T06:50:08.815Z,21.1
2018-08-13T06:51:16.062Z,21.3
2018-08-13T06:52:23.014Z,21.5
2018-08-13T06:53:30.266Z,21.5
2018-08-13T06:54:37.489Z,21.6
2018-08-13T06:55:44.769Z,21.6
2018-08-13T06:56:52.034Z,21.6
2018-08-13T06:57:59.271Z,21.7
2018-08-13T06:59:06.499Z,21.9
2018-08-13T07:00:13.489Z,22.1
2018-08-13T07:01:20.740Z,22
2018-08-13T07:02:27.973Z,22.1
2018-08-13T07:03:35.214Z,22.1
2018-08-13T07:04:42.463Z,22.1
2018-08-13T07:05:49.705Z,22.1
2018-08-13T07:06:56.944Z,22.1
2018-08-13T07:08:03.987Z,22.1
2018-08-13T07:09:11.257Z,22.2
2018-08-13T07:10:18.225Z,22.3
2018-08-13T07:11:25.193Z,22.4
2018-08-13T07:12:32.441Z,22.5
2018-08-13T07:13:39.410Z,22.7
2018-08-13T07:14:46.657Z,22.7
2018-08-13T07:15:53.902Z,22.6
2018-08-13T07:17:01.135Z,22.6
2018-08-13T07:18:08.374Z,22.8
2018-08-13T07:19:15.618Z,22.7
2018-08-13T07:20:22.571Z,22.7
2018-08-13T07:21:29.807Z,22.9
2018-08-13T07:22:37.049Z,23
2018-08-13T07:23:44.292Z,23.1
2018-08-13T07:24:51.524Z,23.5
2018-08-13T07:25:58.752Z,23.8
2018-08-13T07:27:05.979Z,23.9
2018-08-13T07:28:13.538Z,23.8
2018-08-13T07:29:20.618Z,23.8
2018-08-13T07:30:27.566Z,23.9
2018-08-13T07:31:34.800Z,23.8
2018-08-13T07:32:42.037Z,23.6
2018-08-13T07:33:49.460Z,23.5
2018-08-13T07:34:57.005Z,23.5
2018-08-13T07:36:03.973Z,23.6
2018-08-13T07:37:11.220Z,23.9
2018-08-13T07:38:18.486Z,24.1
2018-08-13T07:39:25.884Z,24.2
2018-08-13T07:40:33.518Z,24
2018-08-13T07:41:40.805Z,23.9
2018-08-13T07:42:48.055Z,23.9
2018-08-13T07:43:55.303Z,23.6
2018-08-13T07:45:02.545Z,23.5
2018-08-13T07:46:09.516Z,23.4
2018-08-13T07:47:16.767Z,23.3
2018-08-13T07:48:23.727Z,23.2
2018-08-13T07:49:30.963Z,23.2
2018-08-13T07:50:38.445Z,22.9
2018-08-13T07:51:45.965Z,22.7
2018-08-13T07:52:53.095Z,22.6
2018-08-13T07:54:00.343Z,22.5
2018-08-13T07:55:07.588Z,22.4
2018-08-13T07:56:14.833Z,22.4
2018-08-13T07:57:22.081Z,22.5
2018-08-13T07:58:29.333Z,22.4
2018-08-13T07:59:36.563Z,22.4
2018-08-13T08:00:43.794Z,22.4
2018-08-13T08:01:51.145Z,22.4
2018-08-13T08:02:58.376Z,22.4
2018-08-13T08:04:05.651Z,22.4
2018-08-13T08:05:12.880Z,22.4
2018-08-13T08:06:20.329Z,22.5
2018-08-13T08:07:27.564Z,22.4
2018-08-13T08:08:34.804Z,22.4
2018-08-13T08:09:42.039Z,22.2
2018-08-13T08:10:49.334Z,22.3
2018-08-13T08:11:56.574Z,22.3
2018-08-13T08:13:03.814Z,22.4
2018-08-13T08:14:10.792Z,22.4
2018-08-13T08:15:17.750Z,22.4
2018-08-13T08:16:24.747Z,22.5
2018-08-13T08:17:32.010Z,22.8
2018-08-13T08:18:39.264Z,22.9
2018-08-13T08:19:46.499Z,23.2
2018-08-13T08:20:53.738Z,23.3
2018-08-13T08:22:00.695Z,23.6
2018-08-13T08:23:07.935Z,23.8
2018-08-13T08:24:15.188Z,23.9
2018-08-13T08:25:22.152Z,23.7
2018-08-13T08:26:29.460Z,23.8
2018-08-13T08:27:36.711Z,24.2
2018-08-13T08:28:43.932Z,24.5
2018-08-13T08:29:51.171Z,24.6
2018-08-13T08:30:58.397Z,24.5
2018-08-13T08:32:05.636Z,24.5
2018-08-13T08:33:12.867Z,24.5
2018-08-13T08:34:20.107Z,24.5
2018-08-13T08:35:27.342Z,24.4
2018-08-13T08:36:34.579Z,24.3
2018-08-13T08:37:41.805Z,24.2
2018-08-13T08:38:48.749Z,24
2018-08-13T08:39:55.982Z,23.9
2018-08-13T08:41:03.217Z,23.9
2018-08-13T08:42:10.462Z,23.8
2018-08-13T08:43:17.422Z,23.8
2018-08-13T08:44:24.703Z,23.7
2018-08-13T08:45:31.924Z,23.6
2018-08-13T08:46:39.166Z,23.7
2018-08-13T08:47:46.413Z,23.6
2018-08-13T08:48:53.647Z,23.6
2018-08-13T08:50:00.611Z,23.6
2018-08-13T08:51:07.851Z,23.7
2018-08-13T08:52:15.085Z,23.6
2018-08-13T08:53:22.040Z,23.6
2018-08-13T08:54:29.276Z,23.6
2018-08-13T08:55:36.525Z,23.6
2018-08-13T08:56:43.775Z,23.5
2018-08-13T08:57:50.993Z,23.4
2018-08-13T08:58:57.972Z,23.5
2018-08-13T09:00:05.232Z,23.8
2018-08-13T09:01:12.457Z,24.1
2018-08-13T09:02:19.681Z,24.4
2018-08-13T09:03:26.914Z,24.4
2018-08-13T09:04:34.163Z,24.1
2018-08-13T09:05:41.396Z,24.2
2018-08-13T09:06:48.355Z,24.3
2018-08-13T09:07:55.583Z,24.6
2018-08-13T09:09:02.823Z,24.5
2018-08-13T09:10:10.058Z,24.8
2018-08-13T09:11:17.294Z,25.2
2018-08-13T09:12:24.518Z,25.2
2018-08-13T09:13:31.753Z,25.2
2018-08-13T09:14:38.989Z,25.1
2018-08-13T09:15:46.215Z,25.4
2018-08-13T09:16:53.436Z,25.4
2018-08-13T09:18:00.664Z,25.4
2018-08-13T09:19:08.013Z,25.5
2018-08-13T09:20:15.591Z,25.4
2018-08-13T09:21:22.837Z,25.2
2018-08-13T09:22:30.080Z,25.1
2018-08-13T09:23:37.317Z,25
2018-08-13T09:24:44.546Z,24.9
2018-08-13T09:25:51.540Z,24.9
2018-08-13T09:26:58.526Z,24.8
2018-08-13T09:28:05.762Z,24.7
2018-08-13T09:29:12.992Z,24.5
2018-08-13T09:30:19.941Z,24.5
2018-08-13T09:31:27.172Z,24.4
2018-08-13T09:32:34.132Z,24.2
2018-08-13T09:33:41.354Z,24.1
2018-08-13T09:34:48.590Z,24.3
2018-08-13T09:35:55.827Z,24.3
2018-08-13T09:37:02.781Z,24.4
2018-08-13T09:38:10.038Z,24.3
2018-08-13T09:39:16.987Z,24.3
2018-08-13T09:40:24.227Z,24.4
2018-08-13T09:41:31.460Z,24.5
2018-08-13T09:42:38.686Z,24.2
2018-08-13T09:43:45.917Z,24.2
2018-08-13T09:44:52.895Z,24.2
2018-08-13T09:45:59.852Z,24.3
2018-08-13T09:47:06.828Z,24.2
2018-08-13T09:48:14.175Z,24.1
2018-08-13T09:49:21.717Z,24.2
2018-08-13T09:50:28.702Z,24.2
2018-08-13T09:51:35.937Z,24
2018-08-13T09:52:43.169Z,24
2018-08-13T09:53:50.620Z,24.1
2018-08-13T09:54:58.139Z,24.1
2018-08-13T09:56:05.394Z,24.1
2018-08-13T09:57:12.627Z,24.3
2018-08-13T09:58:19.860Z,24.4
2018-08-13T09:59:27.091Z,24.3
2018-08-13T10:00:34.337Z,24.1
2018-08-13T10:01:41.568Z,24.1
2018-08-13T10:02:48.798Z,24.1
2018-08-13T10:03:55.762Z,24.3
2018-08-13T10:05:02.986Z,24.2
2018-08-13T10:06:10.223Z,24.1
2018-08-13T10:07:17.495Z,24.1
2018-08-13T10:08:24.730Z,24.1
2018-08-13T10:09:31.451Z,24.1
2018-08-13T10:10:38.696Z,24
2018-08-13T10:11:45.939Z,24
2018-08-13T10:12:53.175Z,23.8
2018-08-13T10:14:00.403Z,23.7
2018-08-13T10:15:07.646Z,23.5
2018-08-13T10:16:14.879Z,23.2
2018-08-13T10:17:21.869Z,23
2018-08-13T10:18:28.824Z,23
2018-08-13T10:19:35.804Z,23
2018-08-13T10:20:43.031Z,23
2018-08-13T10:21:50.270Z,23.1
2018-08-13T10:22:57.505Z,23.3
2018-08-13T10:24:04.745Z,23.2
2018-08-13T10:25:11.706Z,23.2
2018-08-13T10:26:18.941Z,23.1
2018-08-13T10:27:26.179Z,23.2
2018-08-13T10:28:33.413Z,23.2
2018-08-13T10:29:40.460Z,23.1
2018-08-13T10:30:47.129Z,23
2018-08-13T10:31:54.371Z,23
2018-08-13T10:33:01.610Z,23
2018-08-13T10:34:08.561Z,22.9
2018-08-13T10:35:15.542Z,22.9
2018-08-13T10:36:22.774Z,22.8
2018-08-13T10:37:29.860Z,22.7
2018-08-13T10:38:37.412Z,22.7
2018-08-13T10:40:03.527Z,22.6
2018-08-13T10:41:10.478Z,22.6
2018-08-13T10:42:17.709Z,22.6
2018-08-13T10:43:24.741Z,22.5
2018-08-13T10:44:32.081Z,22.4
2018-08-13T10:45:39.307Z,22.4
2018-08-13T10:46:46.550Z,22.5
2018-08-13T10:47:53.794Z,22.4
2018-08-13T10:49:01.030Z,22.4
2018-08-13T10:50:08.264Z,22.4
2018-08-13T10:51:15.504Z,22.4
2018-08-13T10:52:22.452Z,22.4
2018-08-13T10:53:29.408Z,22.4
2018-08-13T10:54:36.368Z,22.4
2018-08-13T10:55:43.587Z,22.4
2018-08-13T10:56:50.549Z,22.4
2018-08-13T10:57:57.782Z,22.2
2018-08-13T10:59:05.009Z,22.1
2018-08-13T11:00:12.263Z,22.1
2018-08-13T11:01:19.549Z,22.2
2018-08-13T11:02:26.779Z,22.2
2018-08-13T11:03:33.994Z,22.3
2018-08-13T11:04:41.229Z,22.3
2018-08-13T11:05:48.459Z,22.4
2018-08-13T11:06:55.703Z,22.3
2018-08-13T11:08:03.032Z,22.2
2018-08-13T11:09:10.336Z,22.2
2018-08-13T11:10:17.649Z,22.1
2018-08-13T11:11:25.014Z,22.1
2018-08-13T11:12:31.974Z,22.1
2018-08-13T11:13:39.237Z,22.1
2018-08-13T11:14:46.484Z,22.1
2018-08-13T11:15:53.710Z,21.9
2018-08-13T11:17:00.942Z,21.7
2018-08-13T11:18:08.172Z,21.7
2018-08-13T11:19:15.441Z,21.6
2018-08-13T11:20:22.389Z,21.5
2018-08-13T11:21:29.401Z,21.5
2018-08-13T11:22:36.680Z,21.5
2018-08-13T11:23:43.972Z,21.6
2018-08-13T11:24:50.970Z,21.6
2018-08-13T11:25:58.208Z,21.8
2018-08-13T11:27:05.434Z,21.8
2018-08-13T11:28:12.677Z,21.9
2018-08-13T11:29:19.914Z,21.9
2018-08-13T11:30:27.145Z,22
2018-08-13T11:31:34.386Z,22
2018-08-13T11:32:41.342Z,22
2018-08-13T11:33:48.316Z,22
2018-08-13T11:34:55.877Z,22.1
2018-08-13T11:36:03.427Z,22.1
2018-08-13T11:37:10.662Z,22.2
2018-08-13T11:38:17.889Z,22.3
2018-08-13T11:39:25.110Z,22.3
2018-08-13T11:40:32.427Z,22.3
2018-08-13T11:41:39.726Z,22.2
2018-08-13T11:42:46.958Z,22.2
2018-08-13T11:43:53.909Z,22.2
2018-08-13T11:45:01.156Z,22.2
2018-08-13T11:46:08.392Z,22.3
2018-08-13T11:47:15.636Z,22.3
2018-08-13T11:48:22.874Z,22.4
2018-08-13T11:49:30.111Z,22.4
2018-08-13T11:50:37.357Z,22.4
2018-08-13T11:51:44.580Z,22.3
2018-08-13T11:52:51.819Z,22.4
2018-08-13T11:53:59.063Z,22.4
2018-08-13T11:55:06.308Z,22.3
2018-08-13T11:56:13.553Z,22.4
2018-08-13T11:57:20.516Z,22.4
2018-08-13T11:58:27.751Z,22.4
2018-08-13T11:59:34.979Z,22.4
2018-08-13T12:00:42.217Z,22.4
2018-08-13T12:01:49.450Z,22.4
2018-08-13T12:02:56.681Z,22.5
2018-08-13T12:04:03.918Z,22.5
2018-08-13T12:05:11.146Z,22.5
2018-08-13T12:06:18.377Z,22.6
2018-08-13T12:07:25.329Z,22.6
2018-08-13T12:08:32.797Z,22.6
2018-08-13T12:09:40.256Z,22.5
2018-08-13T12:10:47.500Z,22.5
2018-08-13T12:11:54.737Z,22.5
2018-08-13T12:13:01.977Z,22.4
2018-08-13T12:14:09.425Z,22.4
2018-08-13T12:15:16.887Z,22.3
2018-08-13T12:16:24.126Z,22.2
2018-08-13T12:17:31.357Z,22.3
2018-08-13T12:18:38.583Z,22.2
2018-08-13T12:19:45.805Z,22.2
2018-08-13T12:20:53.043Z,22.2
2018-08-13T12:22:00.267Z,22
2018-08-13T12:23:07.230Z,22.1
2018-08-13T12:24:14.471Z,22.1
2018-08-13T12:25:21.428Z,22.1
2018-08-13T12:26:28.845Z,22.1
2018-08-13T12:27:36.273Z,22.2
2018-08-13T12:28:43.508Z,22.2
2018-08-13T12:29:50.757Z,22.1
2018-08-13T12:30:57.982Z,22
2018-08-13T12:32:05.208Z,22
2018-08-13T12:33:12.450Z,22.1
2018-08-13T12:34:19.408Z,22.2
2018-08-13T12:35:26.638Z,22.2
2018-08-13T12:36:33.877Z,22.1
2018-08-13T12:37:41.107Z,22.2
2018-08-13T12:38:48.342Z,22.3
2018-08-13T12:39:55.317Z,22.4
2018-08-13T12:41:02.420Z,22.4
2018-08-13T12:42:09.872Z,22.5
2018-08-13T12:43:17.136Z,22.6
2018-08-13T12:44:24.368Z,22.7
2018-08-13T12:45:31.603Z,22.6
2018-08-13T12:46:38.271Z,22.6
2018-08-13T12:47:45.508Z,22.6
2018-08-13T12:48:52.738Z,22.6
2018-08-13T12:49:59.979Z,22.6
2018-08-13T12:51:07.353Z,22.5
2018-08-13T12:52:14.872Z,22.6
2018-08-13T12:53:21.840Z,22.5
2018-08-13T12:54:29.087Z,22.5
2018-08-13T12:55:36.313Z,22.6
2018-08-13T12:56:43.547Z,22.6
2018-08-13T12:57:50.503Z,22.7
2018-08-13T12:58:57.447Z,22.5
2018-08-13T13:00:04.417Z,22.3
2018-08-13T13:01:11.653Z,22.2
2018-08-13T13:02:18.881Z,22.2
2018-08-13T13:03:26.115Z,22.2
2018-08-13T13:04:33.073Z,22.2
2018-08-13T13:05:40.315Z,22.2
2018-08-13T13:06:47.550Z,22.3
2018-08-13T13:07:54.799Z,22.4
2018-08-13T13:09:01.896Z,22.4
2018-08-13T13:10:09.345Z,22.5
2018-08-13T13:11:16.586Z,22.5
2018-08-13T13:12:23.253Z,22.6
2018-08-13T13:13:30.491Z,22.4
2018-08-13T13:14:37.461Z,22.4
2018-08-13T13:15:44.725Z,22.3
2018-08-13T13:16:51.952Z,22.3
2018-08-13T13:17:59.188Z,22.4
2018-08-13T13:19:06.413Z,22.4
2018-08-13T13:20:13.635Z,22.4
2018-08-13T13:21:20.868Z,22.4
2018-08-13T13:22:28.106Z,22.4
2018-08-13T13:23:35.071Z,22.5
2018-08-13T13:24:56.949Z,22.4
2018-08-13T13:26:04.158Z,22.3
2018-08-13T13:27:11.566Z,22.3
2018-08-13T13:28:18.794Z,22.2
2018-08-13T13:29:26.027Z,22.2
2018-08-13T13:30:32.973Z,22.2
2018-08-13T13:31:40.205Z,22.2
2018-08-13T13:32:47.205Z,22.2
2018-08-13T13:34:08.805Z,22.2
2018-08-13T13:35:16.054Z,22.1
2018-08-13T13:36:23.291Z,22.2
2018-08-13T13:37:30.523Z,22.3
2018-08-13T13:38:37.750Z,22.3
2018-08-13T13:39:44.976Z,22.3
2018-08-13T13:40:52.218Z,22.3
2018-08-13T13:42:00.121Z,22.2
2018-08-13T13:43:07.364Z,22.1
2018-08-13T13:44:14.599Z,22.1
2018-08-13T13:45:21.580Z,22.3
2018-08-13T13:46:28.533Z,22.4
2018-08-13T13:47:35.772Z,22.4
2018-08-13T13:48:42.474Z,22.3
2018-08-13T13:49:49.705Z,22.3
2018-08-13T13:50:56.933Z,22.3
2018-08-13T13:52:18.841Z,22.3
2018-08-13T13:53:26.080Z,22.2
2018-08-13T13:54:33.319Z,22.1
2018-08-13T13:55:39.987Z,22.1
2018-08-13T13:56:47.226Z,21.9
2018-08-13T13:57:54.455Z,21.9
2018-08-13T13:59:01.698Z,21.8
2018-08-13T14:00:08.666Z,21.9
2018-08-13T14:01:15.625Z,21.9
2018-08-13T14:02:22.854Z,21.8
2018-08-13T14:03:30.089Z,21.7
2018-08-13T14:04:37.314Z,21.8
2018-08-13T14:05:44.283Z,21.9
2018-08-13T14:06:51.519Z,21.9
2018-08-13T14:07:58.747Z,21.9
2018-08-13T14:09:05.976Z,21.8
2018-08-13T14:10:13.200Z,21.7
2018-08-13T14:11:20.438Z,21.8
2018-08-13T14:12:27.672Z,21.8
2018-08-13T14:13:34.357Z,21.9
2018-08-13T14:14:41.574Z,22
2018-08-13T14:15:48.797Z,21.7
2018-08-13T14:16:56.026Z,21.8
2018-08-13T14:18:02.978Z,21.7
2018-08-13T14:19:10.201Z,21.8
2018-08-13T14:20:17.430Z,22
2018-08-13T14:21:24.673Z,22.1
2018-08-13T14:22:31.913Z,22.3
2018-08-13T14:23:39.159Z,22.2
2018-08-13T14:24:46.393Z,22.2
2018-08-13T14:25:53.637Z,22.2
2018-08-13T14:27:00.876Z,22.2
2018-08-13T14:28:08.027Z,22.2
2018-08-13T14:29:15.258Z,22.2
2018-08-13T14:30:22.511Z,22.3
2018-08-13T14:31:29.754Z,22.3
2018-08-13T14:32:37.002Z,22.3
2018-08-13T14:33:44.231Z,22.4
2018-08-13T14:34:51.644Z,22.4
2018-08-13T14:35:59.205Z,22.5
2018-08-13T14:37:06.441Z,22.5
2018-08-13T14:38:13.673Z,22.5
2018-08-13T14:39:20.904Z,22.5
2018-08-13T14:40:28.144Z,22.5
2018-08-13T14:41:35.392Z,22.6
2018-08-13T14:42:42.643Z,22.8
2018-08-13T14:43:49.864Z,22.8
2018-08-13T14:44:57.110Z,22.9
2018-08-13T14:46:04.340Z,23.1
2018-08-13T14:47:11.291Z,23.3
2018-08-13T14:48:18.528Z,23.3
2018-08-13T14:49:25.755Z,23.3
2018-08-13T14:50:32.983Z,23.1
2018-08-13T14:51:40.221Z,23
2018-08-13T14:52:47.448Z,22.9
2018-08-13T14:53:54.420Z,22.8
2018-08-13T14:55:01.654Z,22.8
2018-08-13T14:56:08.877Z,22.6
2018-08-13T14:57:16.106Z,22.7
2018-08-13T14:58:23.340Z,22.9
2018-08-13T14:59:30.585Z,22.9
2018-08-13T15:00:37.529Z,22.9
2018-08-13T15:01:44.767Z,23